sensor_id;sensor_type;location;lat;lon;timestamp;P1;durP1;ratioP1;P2;durP2;ratioP2
18997;SDS011;9632;51.018;4.284;2022-09-13T00:00:37;3.78;;;2.00;;
18997;SDS011;9632;51.018;4.284;2022-09-13T00:03:03;3.75;;;1.95;;
18997;SDS011;9632;51.018;4.284;2022-09-13T00:05:29;4.15;;;2.08;;
18997;SDS011;9632;51.018;4.284;2022-09-13T00:07:55;3.38;;;2.00;;
18997;SDS011;9632;51.018;4.284;2022-09-13T00:10:22;5.55;;;2.28;;
18997;SDS011;9632;51.018;4.284;2022-09-13T00:12:48;5.47;;;2.15;;
18997;SDS011;9632;51.018;4.284;2022-09-13T00:15:14;2.88;;;1.60;;
18997;SDS011;9632;51.018;4.284;2022-09-13T00:17:41;3.20;;;1.85;;
18997;SDS011;9632;51.018;4.284;2022-09-13T00:20:07;6.35;;;2.03;;
18997;SDS011;9632;51.018;4.284;2022-09-13T00:22:33;3.25;;;2.00;;
18997;SDS011;9632;51.018;4.284;2022-09-13T00:24:59;4.97;;;2.50;;
18997;SDS011;9632;51.018;4.284;2022-09-13T00:27:25;3.78;;;2.08;;
18997;SDS011;9632;51.018;4.284;2022-09-13T00:29:51;4.85;;;2.08;;
18997;SDS011;9632;51.018;4.284;2022-09-13T00:32:17;3.67;;;2.30;;
18997;SDS011;9632;51.018;4.284;2022-09-13T00:34:42;4.32;;;2.20;;
18997;SDS011;9632;51.018;4.284;2022-09-13T00:37:08;2.53;;;1.77;;
18997;SDS011;9632;51.018;4.284;2022-09-13T00:39:34;3.53;;;2.40;;
18997;SDS011;9632;51.018;4.284;2022-09-13T00:42:00;3.58;;;2.10;;
18997;SDS011;9632;51.018;4.284;2022-09-13T00:47:14;2.92;;;2.08;;
18997;SDS011;9632;51.018;4.284;2022-09-13T00:55:42;6.40;;;2.38;;
18997;SDS011;9632;51.018;4.284;2022-09-13T00:58:20;4.75;;;2.30;;
18997;SDS011;9632;51.018;4.284;2022-09-13T01:01:08;3.92;;;2.17;;
18997;SDS011;9632;51.018;4.284;2022-09-13T01:03:36;4.97;;;2.05;;
18997;SDS011;9632;51.018;4.284;2022-09-13T01:06:05;3.30;;;2.20;;
18997;SDS011;9632;51.018;4.284;2022-09-13T01:08:33;3.78;;;2.13;;
18997;SDS011;9632;51.018;4.284;2022-09-13T01:11:00;2.92;;;1.80;;
18997;SDS011;9632;51.018;4.284;2022-09-13T01:13:30;4.90;;;1.88;;
18997;SDS011;9632;51.018;4.284;2022-09-13T01:15:59;4.32;;;2.08;;
18997;SDS011;9632;51.018;4.284;2022-09-13T01:18:25;4.55;;;2.10;;
18997;SDS011;9632;51.018;4.284;2022-09-13T01:32:05;4.78;;;2.30;;
18997;SDS011;9632;51.018;4.284;2022-09-13T01:41:11;3.03;;;1.60;;
18997;SDS011;9632;51.018;4.284;2022-09-13T01:43:49;1.77;;;1.60;;
18997;SDS011;9632;51.018;4.284;2022-09-13T01:51:53;4.20;;;1.80;;
18997;SDS011;9632;51.018;4.284;2022-09-13T01:59:56;2.83;;;1.55;;
18997;SDS011;9632;51.018;4.284;2022-09-13T02:02:31;1.95;;;1.40;;
18997;SDS011;9632;51.018;4.284;2022-09-13T02:05:46;3.10;;;1.80;;
18997;SDS011;9632;51.018;4.284;2022-09-13T02:08:07;2.63;;;1.77;;
18997;SDS011;9632;51.018;4.284;2022-09-13T02:10:41;3.15;;;1.65;;
18997;SDS011;9632;51.018;4.284;2022-09-13T02:13:12;3.17;;;1.70;;
18997;SDS011;9632;51.018;4.284;2022-09-13T02:15:46;2.83;;;2.03;;
18997;SDS011;9632;51.018;4.284;2022-09-13T02:18:26;2.97;;;1.80;;
18997;SDS011;9632;51.018;4.284;2022-09-13T02:21:05;5.88;;;2.10;;
18997;SDS011;9632;51.018;4.284;2022-09-13T02:23:53;3.10;;;1.95;;
18997;SDS011;9632;51.018;4.284;2022-09-13T02:26:41;3.20;;;1.73;;
18997;SDS011;9632;51.018;4.284;2022-09-13T02:29:11;5.03;;;1.95;;
18997;SDS011;9632;51.018;4.284;2022-09-13T02:31:43;2.50;;;1.60;;
18997;SDS011;9632;51.018;4.284;2022-09-13T02:34:17;2.33;;;1.73;;
18997;SDS011;9632;51.018;4.284;2022-09-13T02:36:45;2.95;;;1.40;;
18997;SDS011;9632;51.018;4.284;2022-09-13T02:39:14;2.30;;;1.52;;
18997;SDS011;9632;51.018;4.284;2022-09-13T02:44:15;3.67;;;1.83;;
18997;SDS011;9632;51.018;4.284;2022-09-13T02:49:43;2.88;;;1.85;;
18997;SDS011;9632;51.018;4.284;2022-09-13T02:52:22;3.00;;;1.80;;
18997;SDS011;9632;51.018;4.284;2022-09-13T03:00:29;3.10;;;1.90;;
18997;SDS011;9632;51.018;4.284;2022-09-13T03:02:55;4.78;;;1.98;;
18997;SDS011;9632;51.018;4.284;2022-09-13T03:05:24;6.00;;;2.17;;
18997;SDS011;9632;51.018;4.284;2022-09-13T03:07:49;5.63;;;2.20;;
18997;SDS011;9632;51.018;4.284;2022-09-13T03:10:16;4.13;;;1.92;;
18997;SDS011;9632;51.018;4.284;2022-09-13T03:13:00;3.03;;;1.80;;
18997;SDS011;9632;51.018;4.284;2022-09-13T03:18:36;3.53;;;2.03;;
18997;SDS011;9632;51.018;4.284;2022-09-13T03:30:11;3.35;;;1.98;;
18997;SDS011;9632;51.018;4.284;2022-09-13T03:38:07;2.58;;;2.00;;
18997;SDS011;9632;51.018;4.284;2022-09-13T03:40:47;2.88;;;1.67;;
18997;SDS011;9632;51.018;4.284;2022-09-13T03:43:17;4.28;;;2.17;;
18997;SDS011;9632;51.018;4.284;2022-09-13T03:46:28;2.65;;;1.80;;
18997;SDS011;9632;51.018;4.284;2022-09-13T03:49:01;2.90;;;1.75;;
18997;SDS011;9632;51.018;4.284;2022-09-13T03:51:32;2.75;;;1.92;;
18997;SDS011;9632;51.018;4.284;2022-09-13T03:54:04;3.20;;;1.90;;
18997;SDS011;9632;51.018;4.284;2022-09-13T03:56:32;4.82;;;1.92;;
18997;SDS011;9632;51.018;4.284;2022-09-13T03:58:58;3.90;;;1.92;;
18997;SDS011;9632;51.018;4.284;2022-09-13T04:01:25;4.65;;;2.10;;
18997;SDS011;9632;51.018;4.284;2022-09-13T04:03:50;4.25;;;2.25;;
18997;SDS011;9632;51.018;4.284;2022-09-13T04:06:16;4.32;;;2.33;;
18997;SDS011;9632;51.018;4.284;2022-09-13T04:08:42;3.80;;;2.20;;
18997;SDS011;9632;51.018;4.284;2022-09-13T04:11:08;4.15;;;2.30;;
18997;SDS011;9632;51.018;4.284;2022-09-13T04:13:35;3.70;;;1.80;;
18997;SDS011;9632;51.018;4.284;2022-09-13T04:16:01;3.35;;;1.90;;
18997;SDS011;9632;51.018;4.284;2022-09-13T04:18:31;3.80;;;2.00;;
18997;SDS011;9632;51.018;4.284;2022-09-13T04:20:58;2.67;;;1.98;;
18997;SDS011;9632;51.018;4.284;2022-09-13T04:23:25;2.65;;;2.00;;
18997;SDS011;9632;51.018;4.284;2022-09-13T04:25:51;2.80;;;1.95;;
18997;SDS011;9632;51.018;4.284;2022-09-13T04:28:17;3.65;;;2.20;;
18997;SDS011;9632;51.018;4.284;2022-09-13T04:30:44;3.53;;;1.92;;
18997;SDS011;9632;51.018;4.284;2022-09-13T04:33:11;2.40;;;1.70;;
18997;SDS011;9632;51.018;4.284;2022-09-13T04:35:37;2.67;;;1.65;;
18997;SDS011;9632;51.018;4.284;2022-09-13T04:38:04;2.50;;;1.98;;
18997;SDS011;9632;51.018;4.284;2022-09-13T04:40:30;2.78;;;1.70;;
18997;SDS011;9632;51.018;4.284;2022-09-13T04:42:55;2.38;;;1.90;;
18997;SDS011;9632;51.018;4.284;2022-09-13T04:45:21;2.13;;;1.65;;
18997;SDS011;9632;51.018;4.284;2022-09-13T04:47:53;3.95;;;1.98;;
18997;SDS011;9632;51.018;4.284;2022-09-13T04:50:20;4.45;;;1.90;;
18997;SDS011;9632;51.018;4.284;2022-09-13T04:52:46;2.35;;;1.80;;
18997;SDS011;9632;51.018;4.284;2022-09-13T04:55:12;2.80;;;1.65;;
18997;SDS011;9632;51.018;4.284;2022-09-13T04:57:38;3.97;;;2.00;;
18997;SDS011;9632;51.018;4.284;2022-09-13T05:00:05;3.05;;;1.90;;
18997;SDS011;9632;51.018;4.284;2022-09-13T05:02:31;6.43;;;2.22;;
18997;SDS011;9632;51.018;4.284;2022-09-13T05:04:57;6.80;;;2.70;;
18997;SDS011;9632;51.018;4.284;2022-09-13T05:07:22;4.00;;;2.10;;
18997;SDS011;9632;51.018;4.284;2022-09-13T05:09:48;5.88;;;2.15;;
18997;SDS011;9632;51.018;4.284;2022-09-13T05:12:14;4.15;;;2.20;;
18997;SDS011;9632;51.018;4.284;2022-09-13T05:14:39;6.15;;;2.33;;
18997;SDS011;9632;51.018;4.284;2022-09-13T05:17:05;2.45;;;1.80;;
18997;SDS011;9632;51.018;4.284;2022-09-13T05:19:31;4.03;;;2.08;;
18997;SDS011;9632;51.018;4.284;2022-09-13T05:21:57;3.67;;;2.10;;
18997;SDS011;9632;51.018;4.284;2022-09-13T05:24:23;3.22;;;1.90;;
18997;SDS011;9632;51.018;4.284;2022-09-13T05:26:48;4.38;;;2.10;;
18997;SDS011;9632;51.018;4.284;2022-09-13T05:29:14;4.90;;;2.30;;
18997;SDS011;9632;51.018;4.284;2022-09-13T05:31:40;3.92;;;2.28;;
18997;SDS011;9632;51.018;4.284;2022-09-13T05:34:08;5.25;;;2.40;;
18997;SDS011;9632;51.018;4.284;2022-09-13T05:36:35;4.70;;;2.20;;
18997;SDS011;9632;51.018;4.284;2022-09-13T05:39:02;2.47;;;1.77;;
18997;SDS011;9632;51.018;4.284;2022-09-13T05:41:28;3.15;;;2.08;;
18997;SDS011;9632;51.018;4.284;2022-09-13T05:43:54;4.15;;;2.30;;
18997;SDS011;9632;51.018;4.284;2022-09-13T05:46:20;3.53;;;1.98;;
18997;SDS011;9632;51.018;4.284;2022-09-13T05:48:46;4.18;;;2.40;;
18997;SDS011;9632;51.018;4.284;2022-09-13T05:51:19;6.13;;;2.22;;
18997;SDS011;9632;51.018;4.284;2022-09-13T05:53:46;3.67;;;1.90;;
18997;SDS011;9632;51.018;4.284;2022-09-13T05:56:18;3.13;;;1.90;;
18997;SDS011;9632;51.018;4.284;2022-09-13T05:58:51;5.82;;;2.40;;
18997;SDS011;9632;51.018;4.284;2022-09-13T06:01:20;2.95;;;1.90;;
18997;SDS011;9632;51.018;4.284;2022-09-13T06:03:50;3.42;;;1.73;;
18997;SDS011;9632;51.018;4.284;2022-09-13T06:06:19;7.07;;;2.45;;
18997;SDS011;9632;51.018;4.284;2022-09-13T06:08:46;5.20;;;2.08;;
18997;SDS011;9632;51.018;4.284;2022-09-13T06:11:13;3.58;;;2.08;;
18997;SDS011;9632;51.018;4.284;2022-09-13T06:13:39;5.55;;;2.20;;
18997;SDS011;9632;51.018;4.284;2022-09-13T06:16:07;4.50;;;2.08;;
18997;SDS011;9632;51.018;4.284;2022-09-13T06:18:35;3.90;;;1.98;;
18997;SDS011;9632;51.018;4.284;2022-09-13T06:21:05;2.83;;;1.90;;
18997;SDS011;9632;51.018;4.284;2022-09-13T06:23:45;4.85;;;1.77;;
18997;SDS011;9632;51.018;4.284;2022-09-13T06:26:13;4.38;;;1.88;;
18997;SDS011;9632;51.018;4.284;2022-09-13T06:28:40;4.05;;;2.03;;
18997;SDS011;9632;51.018;4.284;2022-09-13T06:31:10;5.20;;;2.08;;
18997;SDS011;9632;51.018;4.284;2022-09-13T06:33:37;4.85;;;2.10;;
18997;SDS011;9632;51.018;4.284;2022-09-13T06:36:09;3.20;;;1.92;;
18997;SDS011;9632;51.018;4.284;2022-09-13T06:38:35;6.65;;;2.30;;
18997;SDS011;9632;51.018;4.284;2022-09-13T06:41:02;5.00;;;2.10;;
18997;SDS011;9632;51.018;4.284;2022-09-13T06:43:38;4.40;;;2.13;;
18997;SDS011;9632;51.018;4.284;2022-09-13T06:46:15;6.63;;;2.30;;
18997;SDS011;9632;51.018;4.284;2022-09-13T06:48:43;6.03;;;2.47;;
18997;SDS011;9632;51.018;4.284;2022-09-13T06:51:13;5.03;;;2.92;;
18997;SDS011;9632;51.018;4.284;2022-09-13T06:53:41;6.55;;;3.00;;
18997;SDS011;9632;51.018;4.284;2022-09-13T06:58:39;11.57;;;3.28;;
18997;SDS011;9632;51.018;4.284;2022-09-13T07:01:07;4.93;;;3.30;;
18997;SDS011;9632;51.018;4.284;2022-09-13T07:03:40;4.82;;;2.83;;
18997;SDS011;9632;51.018;4.284;2022-09-13T07:06:08;5.38;;;2.67;;
18997;SDS011;9632;51.018;4.284;2022-09-13T07:08:35;8.50;;;2.78;;
18997;SDS011;9632;51.018;4.284;2022-09-13T07:11:01;7.15;;;3.25;;
18997;SDS011;9632;51.018;4.284;2022-09-13T07:13:27;8.43;;;3.40;;
18997;SDS011;9632;51.018;4.284;2022-09-13T07:15:52;6.82;;;2.97;;
18997;SDS011;9632;51.018;4.284;2022-09-13T07:18:18;8.52;;;2.70;;
18997;SDS011;9632;51.018;4.284;2022-09-13T07:20:44;6.93;;;3.15;;
18997;SDS011;9632;51.018;4.284;2022-09-13T07:23:09;5.90;;;2.90;;
18997;SDS011;9632;51.018;4.284;2022-09-13T07:25:35;7.68;;;2.63;;
18997;SDS011;9632;51.018;4.284;2022-09-13T07:28:00;7.80;;;3.10;;
18997;SDS011;9632;51.018;4.284;2022-09-13T07:30:26;4.70;;;2.65;;
18997;SDS011;9632;51.018;4.284;2022-09-13T07:32:52;4.82;;;2.28;;
18997;SDS011;9632;51.018;4.284;2022-09-13T07:35:17;5.00;;;2.40;;
18997;SDS011;9632;51.018;4.284;2022-09-13T07:37:43;4.18;;;2.42;;
18997;SDS011;9632;51.018;4.284;2022-09-13T07:40:10;5.80;;;2.50;;
18997;SDS011;9632;51.018;4.284;2022-09-13T07:42:36;4.80;;;2.33;;
18997;SDS011;9632;51.018;4.284;2022-09-13T07:45:02;5.55;;;3.10;;
18997;SDS011;9632;51.018;4.284;2022-09-13T07:47:28;6.00;;;3.42;;
18997;SDS011;9632;51.018;4.284;2022-09-13T07:49:57;6.03;;;3.10;;
18997;SDS011;9632;51.018;4.284;2022-09-13T07:52:23;8.25;;;3.67;;
18997;SDS011;9632;51.018;4.284;2022-09-13T07:54:48;6.88;;;3.33;;
18997;SDS011;9632;51.018;4.284;2022-09-13T07:57:14;10.13;;;3.30;;
18997;SDS011;9632;51.018;4.284;2022-09-13T07:59:39;6.32;;;3.40;;
18997;SDS011;9632;51.018;4.284;2022-09-13T08:02:07;12.13;;;4.20;;
18997;SDS011;9632;51.018;4.284;2022-09-13T08:04:33;9.88;;;4.68;;
18997;SDS011;9632;51.018;4.284;2022-09-13T08:06:59;11.95;;;5.00;;
18997;SDS011;9632;51.018;4.284;2022-09-13T08:09:25;9.98;;;5.22;;
18997;SDS011;9632;51.018;4.284;2022-09-13T08:11:51;11.63;;;5.82;;
18997;SDS011;9632;51.018;4.284;2022-09-13T08:14:17;12.40;;;6.50;;
18997;SDS011;9632;51.018;4.284;2022-09-13T08:16:44;12.40;;;5.78;;
18997;SDS011;9632;51.018;4.284;2022-09-13T08:19:17;13.02;;;6.50;;
18997;SDS011;9632;51.018;4.284;2022-09-13T08:21:43;11.88;;;6.53;;
18997;SDS011;9632;51.018;4.284;2022-09-13T08:24:17;12.30;;;6.43;;
18997;SDS011;9632;51.018;4.284;2022-09-13T08:26:45;14.18;;;6.32;;
18997;SDS011;9632;51.018;4.284;2022-09-13T08:29:12;9.82;;;5.65;;
18997;SDS011;9632;51.018;4.284;2022-09-13T08:31:39;13.43;;;6.55;;
18997;SDS011;9632;51.018;4.284;2022-09-13T08:34:06;11.77;;;6.63;;
18997;SDS011;9632;51.018;4.284;2022-09-13T08:36:36;12.32;;;6.65;;
18997;SDS011;9632;51.018;4.284;2022-09-13T08:39:02;15.13;;;7.00;;
18997;SDS011;9632;51.018;4.284;2022-09-13T08:41:34;10.73;;;5.65;;
18997;SDS011;9632;51.018;4.284;2022-09-13T08:44:23;14.88;;;6.18;;
18997;SDS011;9632;51.018;4.284;2022-09-13T08:49:51;11.50;;;6.95;;
18997;SDS011;9632;51.018;4.284;2022-09-13T09:01:19;15.73;;;6.20;;
18997;SDS011;9632;51.018;4.284;2022-09-13T09:06:38;13.10;;;5.97;;
18997;SDS011;9632;51.018;4.284;2022-09-13T09:09:07;8.45;;;4.28;;
18997;SDS011;9632;51.018;4.284;2022-09-13T09:14:30;8.00;;;4.03;;
18997;SDS011;9632;51.018;4.284;2022-09-13T09:17:04;8.95;;;4.80;;
18997;SDS011;9632;51.018;4.284;2022-09-13T09:19:37;10.25;;;4.30;;
18997;SDS011;9632;51.018;4.284;2022-09-13T09:22:16;10.88;;;5.30;;
18997;SDS011;9632;51.018;4.284;2022-09-13T09:24:47;7.20;;;4.00;;
18997;SDS011;9632;51.018;4.284;2022-09-13T09:27:18;4.70;;;3.17;;
18997;SDS011;9632;51.018;4.284;2022-09-13T09:29:46;11.95;;;5.32;;
18997;SDS011;9632;51.018;4.284;2022-09-13T09:40:30;10.80;;;5.03;;
18997;SDS011;9632;51.018;4.284;2022-09-13T09:42:57;13.13;;;5.40;;
18997;SDS011;9632;51.018;4.284;2022-09-13T09:45:27;16.60;;;6.03;;
18997;SDS011;9632;51.018;4.284;2022-09-13T09:47:59;10.52;;;4.60;;
18997;SDS011;9632;51.018;4.284;2022-09-13T09:50:37;12.13;;;4.68;;
18997;SDS011;9632;51.018;4.284;2022-09-13T09:55:54;9.15;;;4.75;;
18997;SDS011;9632;51.018;4.284;2022-09-13T09:58:37;13.88;;;5.10;;
18997;SDS011;9632;51.018;4.284;2022-09-13T10:01:05;9.48;;;4.45;;
18997;SDS011;9632;51.018;4.284;2022-09-13T10:06:22;9.88;;;3.95;;
18997;SDS011;9632;51.018;4.284;2022-09-13T10:09:31;13.57;;;4.00;;
18997;SDS011;9632;51.018;4.284;2022-09-13T10:14:09;6.88;;;3.00;;
18997;SDS011;9632;51.018;4.284;2022-09-13T10:19:56;7.68;;;3.13;;
18997;SDS011;9632;51.018;4.284;2022-09-13T10:22:25;11.65;;;3.55;;
18997;SDS011;9632;51.018;4.284;2022-09-13T10:24:52;11.18;;;3.00;;
18997;SDS011;9632;51.018;4.284;2022-09-13T10:27:20;7.07;;;2.95;;
18997;SDS011;9632;51.018;4.284;2022-09-13T10:29:50;8.02;;;2.90;;
18997;SDS011;9632;51.018;4.284;2022-09-13T10:32:19;5.90;;;2.50;;
18997;SDS011;9632;51.018;4.284;2022-09-13T10:34:46;9.10;;;3.20;;
18997;SDS011;9632;51.018;4.284;2022-09-13T10:37:14;7.63;;;2.80;;
18997;SDS011;9632;51.018;4.284;2022-09-13T10:42:48;6.82;;;3.38;;
18997;SDS011;9632;51.018;4.284;2022-09-13T10:45:21;6.82;;;2.88;;
18997;SDS011;9632;51.018;4.284;2022-09-13T10:47:49;6.40;;;2.88;;
18997;SDS011;9632;51.018;4.284;2022-09-13T10:50:22;7.80;;;2.90;;
18997;SDS011;9632;51.018;4.284;2022-09-13T10:52:53;11.93;;;4.03;;
18997;SDS011;9632;51.018;4.284;2022-09-13T10:55:53;11.15;;;3.92;;
18997;SDS011;9632;51.018;4.284;2022-09-13T10:58:18;8.88;;;3.90;;
18997;SDS011;9632;51.018;4.284;2022-09-13T11:06:40;8.05;;;3.92;;
18997;SDS011;9632;51.018;4.284;2022-09-13T11:09:25;9.75;;;4.00;;
18997;SDS011;9632;51.018;4.284;2022-09-13T11:12:10;5.88;;;2.55;;
18997;SDS011;9632;51.018;4.284;2022-09-13T11:31:06;9.25;;;4.22;;
18997;SDS011;9632;51.018;4.284;2022-09-13T11:33:37;9.15;;;4.22;;
18997;SDS011;9632;51.018;4.284;2022-09-13T11:39:37;4.65;;;2.60;;
18997;SDS011;9632;51.018;4.284;2022-09-13T11:59:35;6.80;;;3.08;;
18997;SDS011;9632;51.018;4.284;2022-09-13T12:05:19;5.90;;;3.10;;
18997;SDS011;9632;51.018;4.284;2022-09-13T12:10:23;4.55;;;2.42;;
18997;SDS011;9632;51.018;4.284;2022-09-13T12:12:54;6.40;;;2.85;;
18997;SDS011;9632;51.018;4.284;2022-09-13T12:15:28;7.75;;;3.20;;
18997;SDS011;9632;51.018;4.284;2022-09-13T12:18:18;5.85;;;2.47;;
18997;SDS011;9632;51.018;4.284;2022-09-13T12:20:55;4.93;;;2.50;;
18997;SDS011;9632;51.018;4.284;2022-09-13T12:26:47;6.13;;;3.10;;
18997;SDS011;9632;51.018;4.284;2022-09-13T12:29:28;7.47;;;3.10;;
18997;SDS011;9632;51.018;4.284;2022-09-13T12:32:02;4.68;;;2.53;;
18997;SDS011;9632;51.018;4.284;2022-09-13T12:39:56;8.90;;;3.08;;
18997;SDS011;9632;51.018;4.284;2022-09-13T12:47:40;4.30;;;2.20;;
18997;SDS011;9632;51.018;4.284;2022-09-13T12:50:30;7.40;;;3.13;;
18997;SDS011;9632;51.018;4.284;2022-09-13T12:53:17;12.45;;;3.33;;
18997;SDS011;9632;51.018;4.284;2022-09-13T13:01:26;5.28;;;2.70;;
18997;SDS011;9632;51.018;4.284;2022-09-13T13:06:38;11.07;;;2.78;;
18997;SDS011;9632;51.018;4.284;2022-09-13T13:12:00;7.13;;;2.85;;
18997;SDS011;9632;51.018;4.284;2022-09-13T13:25:53;13.88;;;3.75;;
18997;SDS011;9632;51.018;4.284;2022-09-13T13:33:45;7.50;;;3.20;;
18997;SDS011;9632;51.018;4.284;2022-09-13T13:36:22;8.38;;;3.55;;
18997;SDS011;9632;51.018;4.284;2022-09-13T13:38:49;6.45;;;3.47;;
18997;SDS011;9632;51.018;4.284;2022-09-13T13:41:38;11.18;;;4.50;;
18997;SDS011;9632;51.018;4.284;2022-09-13T14:00:15;8.13;;;3.22;;
18997;SDS011;9632;51.018;4.284;2022-09-13T14:11:03;7.70;;;3.30;;
18997;SDS011;9632;51.018;4.284;2022-09-13T14:14:03;6.25;;;3.88;;
18997;SDS011;9632;51.018;4.284;2022-09-13T14:19:33;6.05;;;3.00;;
18997;SDS011;9632;51.018;4.284;2022-09-13T14:22:18;7.70;;;4.15;;
18997;SDS011;9632;51.018;4.284;2022-09-13T14:24:46;8.80;;;3.75;;
18997;SDS011;9632;51.018;4.284;2022-09-13T14:30:04;9.15;;;3.38;;
18997;SDS011;9632;51.018;4.284;2022-09-13T14:32:41;6.72;;;3.25;;
18997;SDS011;9632;51.018;4.284;2022-09-13T14:35:43;7.82;;;3.90;;
18997;SDS011;9632;51.018;4.284;2022-09-13T14:38:21;7.50;;;3.50;;
18997;SDS011;9632;51.018;4.284;2022-09-13T14:40:57;8.68;;;3.60;;
18997;SDS011;9632;51.018;4.284;2022-09-13T14:43:26;8.02;;;3.45;;
18997;SDS011;9632;51.018;4.284;2022-09-13T14:46:06;6.50;;;3.92;;
18997;SDS011;9632;51.018;4.284;2022-09-13T14:53:42;10.88;;;5.85;;
18997;SDS011;9632;51.018;4.284;2022-09-13T14:58:52;11.48;;;5.82;;
18997;SDS011;9632;51.018;4.284;2022-09-13T15:01:33;16.05;;;7.22;;
18997;SDS011;9632;51.018;4.284;2022-09-13T15:04:00;7.55;;;4.85;;
18997;SDS011;9632;51.018;4.284;2022-09-13T15:06:30;7.45;;;4.07;;
18997;SDS011;9632;51.018;4.284;2022-09-13T15:09:13;9.27;;;4.90;;
18997;SDS011;9632;51.018;4.284;2022-09-13T15:19:40;13.15;;;7.82;;
18997;SDS011;9632;51.018;4.284;2022-09-13T15:24:43;9.90;;;5.65;;
18997;SDS011;9632;51.018;4.284;2022-09-13T15:27:21;11.48;;;6.53;;
18997;SDS011;9632;51.018;4.284;2022-09-13T15:29:48;10.43;;;6.30;;
18997;SDS011;9632;51.018;4.284;2022-09-13T15:32:19;10.18;;;6.43;;
18997;SDS011;9632;51.018;4.284;2022-09-13T15:34:54;9.30;;;6.05;;
18997;SDS011;9632;51.018;4.284;2022-09-13T15:37:32;10.70;;;7.00;;
18997;SDS011;9632;51.018;4.284;2022-09-13T15:40:14;10.65;;;6.47;;
18997;SDS011;9632;51.018;4.284;2022-09-13T15:42:49;12.52;;;7.03;;
18997;SDS011;9632;51.018;4.284;2022-09-13T15:45:16;12.52;;;7.38;;
18997;SDS011;9632;51.018;4.284;2022-09-13T15:47:47;17.95;;;9.95;;
18997;SDS011;9632;51.018;4.284;2022-09-13T15:50:22;16.10;;;10.73;;
18997;SDS011;9632;51.018;4.284;2022-09-13T15:52:54;12.30;;;8.88;;
18997;SDS011;9632;51.018;4.284;2022-09-13T15:55:21;18.05;;;12.15;;
18997;SDS011;9632;51.018;4.284;2022-09-13T15:57:47;15.63;;;11.05;;
18997;SDS011;9632;51.018;4.284;2022-09-13T16:00:18;22.95;;;14.02;;
18997;SDS011;9632;51.018;4.284;2022-09-13T16:02:49;17.42;;;10.95;;
18997;SDS011;9632;51.018;4.284;2022-09-13T16:05:15;15.15;;;10.43;;
18997;SDS011;9632;51.018;4.284;2022-09-13T16:07:41;13.13;;;9.52;;
18997;SDS011;9632;51.018;4.284;2022-09-13T16:10:40;18.23;;;12.25;;
18997;SDS011;9632;51.018;4.284;2022-09-13T16:12:59;18.80;;;13.13;;
18997;SDS011;9632;51.018;4.284;2022-09-13T16:15:25;16.83;;;11.13;;
18997;SDS011;9632;51.018;4.284;2022-09-13T16:17:52;17.98;;;11.88;;
18997;SDS011;9632;51.018;4.284;2022-09-13T16:20:18;18.08;;;12.23;;
18997;SDS011;9632;51.018;4.284;2022-09-13T16:22:44;14.57;;;10.00;;
18997;SDS011;9632;51.018;4.284;2022-09-13T16:25:13;11.82;;;8.80;;
18997;SDS011;9632;51.018;4.284;2022-09-13T16:27:42;15.23;;;9.90;;
18997;SDS011;9632;51.018;4.284;2022-09-13T16:30:12;21.70;;;12.68;;
18997;SDS011;9632;51.018;4.284;2022-09-13T16:32:41;13.63;;;10.13;;
18997;SDS011;9632;51.018;4.284;2022-09-13T16:35:07;20.23;;;9.50;;
18997;SDS011;9632;51.018;4.284;2022-09-13T16:37:33;11.75;;;8.65;;
18997;SDS011;9632;51.018;4.284;2022-09-13T16:39:59;9.77;;;7.55;;
18997;SDS011;9632;51.018;4.284;2022-09-13T16:42:25;14.10;;;8.05;;
18997;SDS011;9632;51.018;4.284;2022-09-13T16:44:51;10.95;;;7.57;;
18997;SDS011;9632;51.018;4.284;2022-09-13T16:47:16;9.77;;;7.25;;
18997;SDS011;9632;51.018;4.284;2022-09-13T16:49:42;11.43;;;7.57;;
18997;SDS011;9632;51.018;4.284;2022-09-13T16:52:08;9.85;;;7.60;;
18997;SDS011;9632;51.018;4.284;2022-09-13T16:54:34;11.55;;;8.15;;
18997;SDS011;9632;51.018;4.284;2022-09-13T16:57:01;14.48;;;9.05;;
18997;SDS011;9632;51.018;4.284;2022-09-13T16:59:28;10.18;;;7.10;;
18997;SDS011;9632;51.018;4.284;2022-09-13T17:01:55;9.70;;;7.38;;
18997;SDS011;9632;51.018;4.284;2022-09-13T17:04:21;8.75;;;6.65;;
18997;SDS011;9632;51.018;4.284;2022-09-13T17:06:47;9.43;;;6.80;;
18997;SDS011;9632;51.018;4.284;2022-09-13T17:09:13;8.10;;;6.25;;
18997;SDS011;9632;51.018;4.284;2022-09-13T17:11:41;11.02;;;6.35;;
18997;SDS011;9632;51.018;4.284;2022-09-13T17:14:09;9.73;;;6.47;;
18997;SDS011;9632;51.018;4.284;2022-09-13T17:16:48;9.25;;;6.43;;
18997;SDS011;9632;51.018;4.284;2022-09-13T17:19:20;10.55;;;6.78;;
18997;SDS011;9632;51.018;4.284;2022-09-13T17:21:48;10.95;;;7.13;;
18997;SDS011;9632;51.018;4.284;2022-09-13T17:24:14;10.90;;;7.25;;
18997;SDS011;9632;51.018;4.284;2022-09-13T17:26:41;10.07;;;7.70;;
18997;SDS011;9632;51.018;4.284;2022-09-13T17:29:09;8.95;;;6.45;;
18997;SDS011;9632;51.018;4.284;2022-09-13T17:31:35;9.82;;;7.10;;
18997;SDS011;9632;51.018;4.284;2022-09-13T17:34:01;8.27;;;6.38;;
18997;SDS011;9632;51.018;4.284;2022-09-13T17:36:26;9.88;;;7.25;;
18997;SDS011;9632;51.018;4.284;2022-09-13T17:38:55;9.10;;;6.85;;
18997;SDS011;9632;51.018;4.284;2022-09-13T17:41:22;9.05;;;7.07;;
18997;SDS011;9632;51.018;4.284;2022-09-13T17:43:48;8.82;;;7.05;;
18997;SDS011;9632;51.018;4.284;2022-09-13T17:46:18;9.80;;;6.65;;
18997;SDS011;9632;51.018;4.284;2022-09-13T17:48:46;12.90;;;8.88;;
18997;SDS011;9632;51.018;4.284;2022-09-13T17:51:13;10.23;;;6.97;;
18997;SDS011;9632;51.018;4.284;2022-09-13T17:53:51;14.75;;;9.85;;
18997;SDS011;9632;51.018;4.284;2022-09-13T17:56:24;13.13;;;9.48;;
18997;SDS011;9632;51.018;4.284;2022-09-13T17:58:53;15.50;;;9.88;;
18997;SDS011;9632;51.018;4.284;2022-09-13T18:01:20;11.68;;;8.95;;
18997;SDS011;9632;51.018;4.284;2022-09-13T18:03:46;10.88;;;7.25;;
18997;SDS011;9632;51.018;4.284;2022-09-13T18:06:11;9.07;;;6.75;;
18997;SDS011;9632;51.018;4.284;2022-09-13T18:08:41;9.13;;;6.68;;
18997;SDS011;9632;51.018;4.284;2022-09-13T18:11:10;8.77;;;7.00;;
18997;SDS011;9632;51.018;4.284;2022-09-13T18:13:38;9.60;;;6.75;;
18997;SDS011;9632;51.018;4.284;2022-09-13T18:16:11;11.30;;;7.78;;
18997;SDS011;9632;51.018;4.284;2022-09-13T18:18:38;13.60;;;8.93;;
18997;SDS011;9632;51.018;4.284;2022-09-13T18:21:05;10.07;;;7.72;;
18997;SDS011;9632;51.018;4.284;2022-09-13T18:23:32;9.80;;;7.30;;
18997;SDS011;9632;51.018;4.284;2022-09-13T18:25:59;8.82;;;7.13;;
18997;SDS011;9632;51.018;4.284;2022-09-13T18:28:27;10.05;;;6.95;;
18997;SDS011;9632;51.018;4.284;2022-09-13T18:30:54;13.95;;;8.45;;
18997;SDS011;9632;51.018;4.284;2022-09-13T18:33:25;11.80;;;7.70;;
18997;SDS011;9632;51.018;4.284;2022-09-13T18:35:58;12.30;;;8.85;;
18997;SDS011;9632;51.018;4.284;2022-09-13T18:38:26;12.55;;;7.75;;
18997;SDS011;9632;51.018;4.284;2022-09-13T18:41:02;11.07;;;7.50;;
18997;SDS011;9632;51.018;4.284;2022-09-13T18:43:33;9.40;;;5.50;;
18997;SDS011;9632;51.018;4.284;2022-09-13T18:46:01;11.68;;;7.07;;
18997;SDS011;9632;51.018;4.284;2022-09-13T18:48:33;9.75;;;6.55;;
18997;SDS011;9632;51.018;4.284;2022-09-13T18:51:00;8.35;;;5.25;;
18997;SDS011;9632;51.018;4.284;2022-09-13T18:53:26;10.70;;;5.47;;
18997;SDS011;9632;51.018;4.284;2022-09-13T18:55:53;13.18;;;6.85;;
18997;SDS011;9632;51.018;4.284;2022-09-13T18:58:22;10.23;;;5.80;;
18997;SDS011;9632;51.018;4.284;2022-09-13T19:00:58;12.18;;;6.03;;
18997;SDS011;9632;51.018;4.284;2022-09-13T19:03:34;10.25;;;5.88;;
18997;SDS011;9632;51.018;4.284;2022-09-13T19:06:17;11.82;;;5.95;;
18997;SDS011;9632;51.018;4.284;2022-09-13T19:08:51;9.20;;;5.50;;
18997;SDS011;9632;51.018;4.284;2022-09-13T19:11:18;11.43;;;7.22;;
18997;SDS011;9632;51.018;4.284;2022-09-13T19:13:45;9.52;;;6.47;;
18997;SDS011;9632;51.018;4.284;2022-09-13T19:16:11;10.02;;;6.05;;
18997;SDS011;9632;51.018;4.284;2022-09-13T19:18:40;11.27;;;6.57;;
18997;SDS011;9632;51.018;4.284;2022-09-13T19:23:33;8.63;;;4.80;;
18997;SDS011;9632;51.018;4.284;2022-09-13T19:26:13;11.23;;;5.40;;